< < Back
Terminal Aerodrome Forecast


Current Version              Previous Versions:   1  2  3  4  5  6  7  8  9  

Terminal Aerodrome Forecast

309
FTUS42 KGSP 212300
TAFCLT
TAF
KCLT 212335Z 2200/2224 07007KT P6SM SCT012 BKN040
      TEMPO 2200/2202 BKN012 OVC040
     FM220200 07004KT P6SM VCSH OVC008
     FM220700 06004KT 5SM BR VCSH OVC004
     FM221300 06004KT P6SM OVC007
     FM221600 06004KT P6SM BKN025 PROB30 2219/2224 4SM TSRA
      OVC015CB=



Latest METAR

779
SAUS70 KWBC 220700 RRJ
MTRCLT
METAR KCLT 220652Z 10005KT 10SM BKN010 OVC015 22/20 A3013 RMK AO2 SLP196
T02220200


USA.gov is the U.S. government's official web portal to all federal, state and local government web resources and services.